sensor_id;sensor_type;location;lat;lon;timestamp;P1;durP1;ratioP1;P2;durP2;ratioP2
6017;SDS011;3037;51.068;13.780;2023-03-01T00:00:36;24.30;;;14.50;;
6017;SDS011;3037;51.068;13.780;2023-03-01T00:03:02;26.97;;;16.23;;
6017;SDS011;3037;51.068;13.780;2023-03-01T00:05:28;27.93;;;15.83;;
6017;SDS011;3037;51.068;13.780;2023-03-01T00:07:53;36.27;;;16.17;;
6017;SDS011;3037;51.068;13.780;2023-03-01T00:10:19;29.37;;;17.90;;
6017;SDS011;3037;51.068;13.780;2023-03-01T00:12:44;26.20;;;16.30;;
6017;SDS011;3037;51.068;13.780;2023-03-01T00:15:10;29.93;;;17.20;;
6017;SDS011;3037;51.068;13.780;2023-03-01T00:17:36;24.70;;;15.60;;
6017;SDS011;3037;51.068;13.780;2023-03-01T00:20:02;28.97;;;14.63;;
6017;SDS011;3037;51.068;13.780;2023-03-01T00:22:28;30.97;;;16.00;;
6017;SDS011;3037;51.068;13.780;2023-03-01T00:24:53;22.73;;;15.27;;
6017;SDS011;3037;51.068;13.780;2023-03-01T00:27:19;27.73;;;15.77;;
6017;SDS011;3037;51.068;13.780;2023-03-01T00:29:44;28.63;;;16.70;;
6017;SDS011;3037;51.068;13.780;2023-03-01T00:32:10;24.17;;;15.50;;
6017;SDS011;3037;51.068;13.780;2023-03-01T00:34:35;24.23;;;14.87;;
6017;SDS011;3037;51.068;13.780;2023-03-01T00:37:01;22.83;;;14.27;;
6017;SDS011;3037;51.068;13.780;2023-03-01T00:39:30;26.37;;;15.53;;
6017;SDS011;3037;51.068;13.780;2023-03-01T00:41:56;27.10;;;15.03;;
6017;SDS011;3037;51.068;13.780;2023-03-01T00:44:22;23.90;;;16.27;;
6017;SDS011;3037;51.068;13.780;2023-03-01T00:46:48;28.50;;;17.90;;
6017;SDS011;3037;51.068;13.780;2023-03-01T00:49:13;27.10;;;17.70;;
6017;SDS011;3037;51.068;13.780;2023-03-01T00:51:39;35.33;;;19.83;;
6017;SDS011;3037;51.068;13.780;2023-03-01T00:54:07;25.23;;;16.30;;
6017;SDS011;3037;51.068;13.780;2023-03-01T00:56:33;28.37;;;17.03;;
6017;SDS011;3037;51.068;13.780;2023-03-01T00:58:59;27.27;;;17.30;;
6017;SDS011;3037;51.068;13.780;2023-03-01T01:01:26;26.53;;;15.53;;
6017;SDS011;3037;51.068;13.780;2023-03-01T01:04:01;25.67;;;15.73;;
6017;SDS011;3037;51.068;13.780;2023-03-01T01:06:37;33.27;;;16.87;;
6017;SDS011;3037;51.068;13.780;2023-03-01T01:09:07;33.43;;;18.57;;
6017;SDS011;3037;51.068;13.780;2023-03-01T01:11:34;34.37;;;19.43;;
6017;SDS011;3037;51.068;13.780;2023-03-01T01:14:01;33.13;;;17.27;;
6017;SDS011;3037;51.068;13.780;2023-03-01T01:16:28;38.10;;;20.87;;
6017;SDS011;3037;51.068;13.780;2023-03-01T01:18:54;38.57;;;21.47;;
6017;SDS011;3037;51.068;13.780;2023-03-01T01:21:21;33.47;;;18.57;;
6017;SDS011;3037;51.068;13.780;2023-03-01T01:23:48;32.77;;;19.90;;
6017;SDS011;3037;51.068;13.780;2023-03-01T01:26:16;36.23;;;19.87;;
6017;SDS011;3037;51.068;13.780;2023-03-01T01:28:47;30.50;;;18.37;;
6017;SDS011;3037;51.068;13.780;2023-03-01T01:31:13;30.07;;;17.47;;
6017;SDS011;3037;51.068;13.780;2023-03-01T01:33:39;25.53;;;17.33;;
6017;SDS011;3037;51.068;13.780;2023-03-01T01:36:05;33.80;;;17.37;;
6017;SDS011;3037;51.068;13.780;2023-03-01T01:38:31;31.20;;;17.77;;
6017;SDS011;3037;51.068;13.780;2023-03-01T01:40:58;32.13;;;18.20;;
6017;SDS011;3037;51.068;13.780;2023-03-01T01:43:27;21.70;;;16.07;;
6017;SDS011;3037;51.068;13.780;2023-03-01T01:46:21;34.73;;;17.50;;
6017;SDS011;3037;51.068;13.780;2023-03-01T01:48:48;38.97;;;21.07;;
6017;SDS011;3037;51.068;13.780;2023-03-01T01:51:19;38.40;;;21.83;;
6017;SDS011;3037;51.068;13.780;2023-03-01T01:53:53;33.73;;;21.03;;
6017;SDS011;3037;51.068;13.780;2023-03-01T01:56:23;34.60;;;21.13;;
6017;SDS011;3037;51.068;13.780;2023-03-01T01:58:50;40.27;;;20.20;;
6017;SDS011;3037;51.068;13.780;2023-03-01T02:01:17;33.27;;;20.17;;
6017;SDS011;3037;51.068;13.780;2023-03-01T02:03:43;42.10;;;20.00;;
6017;SDS011;3037;51.068;13.780;2023-03-01T02:06:27;41.53;;;20.27;;
6017;SDS011;3037;51.068;13.780;2023-03-01T02:08:59;35.73;;;23.60;;
6017;SDS011;3037;51.068;13.780;2023-03-01T02:11:27;42.80;;;22.83;;
6017;SDS011;3037;51.068;13.780;2023-03-01T02:13:55;50.47;;;22.10;;
6017;SDS011;3037;51.068;13.780;2023-03-01T02:16:21;33.60;;;20.07;;
6017;SDS011;3037;51.068;13.780;2023-03-01T02:18:46;43.73;;;21.30;;
6017;SDS011;3037;51.068;13.780;2023-03-01T02:23:54;37.23;;;22.13;;
6017;SDS011;3037;51.068;13.780;2023-03-01T02:26:23;37.70;;;20.97;;
6017;SDS011;3037;51.068;13.780;2023-03-01T02:28:59;38.30;;;20.20;;
6017;SDS011;3037;51.068;13.780;2023-03-01T02:31:25;41.67;;;20.03;;
6017;SDS011;3037;51.068;13.780;2023-03-01T02:34:14;29.17;;;20.43;;
6017;SDS011;3037;51.068;13.780;2023-03-01T02:42:03;33.17;;;18.50;;
6017;SDS011;3037;51.068;13.780;2023-03-01T02:44:30;42.47;;;20.97;;
6017;SDS011;3037;51.068;13.780;2023-03-01T02:46:56;36.30;;;18.40;;
6017;SDS011;3037;51.068;13.780;2023-03-01T02:49:26;33.53;;;20.37;;
6017;SDS011;3037;51.068;13.780;2023-03-01T02:52:11;36.27;;;20.13;;
6017;SDS011;3037;51.068;13.780;2023-03-01T02:54:50;33.80;;;18.47;;
6017;SDS011;3037;51.068;13.780;2023-03-01T02:57:31;36.07;;;18.57;;
6017;SDS011;3037;51.068;13.780;2023-03-01T02:59:59;27.70;;;19.23;;
6017;SDS011;3037;51.068;13.780;2023-03-01T03:02:32;32.03;;;18.93;;
6017;SDS011;3037;51.068;13.780;2023-03-01T03:05:20;30.60;;;19.27;;
6017;SDS011;3037;51.068;13.780;2023-03-01T03:07:48;34.00;;;19.53;;
6017;SDS011;3037;51.068;13.780;2023-03-01T03:10:21;29.67;;;17.73;;
6017;SDS011;3037;51.068;13.780;2023-03-01T03:12:52;30.53;;;18.60;;
6017;SDS011;3037;51.068;13.780;2023-03-01T03:15:20;31.17;;;17.40;;
6017;SDS011;3037;51.068;13.780;2023-03-01T03:17:46;32.50;;;18.73;;
6017;SDS011;3037;51.068;13.780;2023-03-01T03:20:14;35.23;;;20.50;;
6017;SDS011;3037;51.068;13.780;2023-03-01T03:22:44;36.37;;;21.13;;
6017;SDS011;3037;51.068;13.780;2023-03-01T03:25:10;33.10;;;20.90;;
6017;SDS011;3037;51.068;13.780;2023-03-01T03:27:40;32.00;;;21.10;;
6017;SDS011;3037;51.068;13.780;2023-03-01T03:30:08;30.27;;;18.30;;
6017;SDS011;3037;51.068;13.780;2023-03-01T03:32:37;34.33;;;18.50;;
6017;SDS011;3037;51.068;13.780;2023-03-01T03:35:04;29.27;;;18.23;;
6017;SDS011;3037;51.068;13.780;2023-03-01T03:37:35;40.13;;;20.90;;
6017;SDS011;3037;51.068;13.780;2023-03-01T03:40:23;32.03;;;18.90;;
6017;SDS011;3037;51.068;13.780;2023-03-01T03:42:49;30.60;;;18.87;;
6017;SDS011;3037;51.068;13.780;2023-03-01T03:45:15;35.97;;;18.90;;
6017;SDS011;3037;51.068;13.780;2023-03-01T03:47:41;42.47;;;20.50;;
6017;SDS011;3037;51.068;13.780;2023-03-01T03:50:08;32.03;;;19.10;;
6017;SDS011;3037;51.068;13.780;2023-03-01T03:52:35;34.53;;;19.43;;
6017;SDS011;3037;51.068;13.780;2023-03-01T03:55:00;35.83;;;19.33;;
6017;SDS011;3037;51.068;13.780;2023-03-01T03:57:25;39.13;;;20.17;;
6017;SDS011;3037;51.068;13.780;2023-03-01T03:59:51;33.83;;;19.60;;
6017;SDS011;3037;51.068;13.780;2023-03-01T04:02:16;32.60;;;17.77;;
6017;SDS011;3037;51.068;13.780;2023-03-01T04:04:46;34.17;;;16.97;;
6017;SDS011;3037;51.068;13.780;2023-03-01T04:07:15;31.57;;;17.97;;
6017;SDS011;3037;51.068;13.780;2023-03-01T04:09:42;34.37;;;18.37;;
6017;SDS011;3037;51.068;13.780;2023-03-01T04:12:08;36.83;;;19.43;;
6017;SDS011;3037;51.068;13.780;2023-03-01T04:14:35;32.43;;;19.47;;
6017;SDS011;3037;51.068;13.780;2023-03-01T04:17:01;34.73;;;20.73;;
6017;SDS011;3037;51.068;13.780;2023-03-01T04:19:29;45.03;;;20.17;;
6017;SDS011;3037;51.068;13.780;2023-03-01T04:22:01;35.47;;;19.10;;
6017;SDS011;3037;51.068;13.780;2023-03-01T04:24:34;34.20;;;20.90;;
6017;SDS011;3037;51.068;13.780;2023-03-01T04:27:00;34.33;;;18.57;;
6017;SDS011;3037;51.068;13.780;2023-03-01T04:29:25;36.53;;;20.97;;
6017;SDS011;3037;51.068;13.780;2023-03-01T04:31:51;33.83;;;19.00;;
6017;SDS011;3037;51.068;13.780;2023-03-01T04:34:16;35.57;;;19.20;;
6017;SDS011;3037;51.068;13.780;2023-03-01T04:36:42;31.80;;;17.77;;
6017;SDS011;3037;51.068;13.780;2023-03-01T04:39:07;35.60;;;21.27;;
6017;SDS011;3037;51.068;13.780;2023-03-01T04:41:37;29.90;;;18.17;;
6017;SDS011;3037;51.068;13.780;2023-03-01T04:44:04;45.17;;;21.57;;
6017;SDS011;3037;51.068;13.780;2023-03-01T04:46:30;43.63;;;22.00;;
6017;SDS011;3037;51.068;13.780;2023-03-01T04:48:55;35.50;;;21.60;;
6017;SDS011;3037;51.068;13.780;2023-03-01T04:51:21;37.50;;;22.57;;
6017;SDS011;3037;51.068;13.780;2023-03-01T04:53:46;34.20;;;21.20;;
6017;SDS011;3037;51.068;13.780;2023-03-01T04:56:13;43.30;;;21.23;;
6017;SDS011;3037;51.068;13.780;2023-03-01T04:58:38;39.43;;;21.17;;
6017;SDS011;3037;51.068;13.780;2023-03-01T05:01:08;35.97;;;19.40;;
6017;SDS011;3037;51.068;13.780;2023-03-01T05:03:45;39.93;;;20.40;;
6017;SDS011;3037;51.068;13.780;2023-03-01T05:06:13;35.80;;;22.20;;
6017;SDS011;3037;51.068;13.780;2023-03-01T05:08:39;36.77;;;20.90;;
6017;SDS011;3037;51.068;13.780;2023-03-01T05:11:06;35.87;;;22.10;;
6017;SDS011;3037;51.068;13.780;2023-03-01T05:13:33;38.17;;;22.33;;
6017;SDS011;3037;51.068;13.780;2023-03-01T05:16:00;42.83;;;22.80;;
6017;SDS011;3037;51.068;13.780;2023-03-01T05:18:28;42.13;;;20.60;;
6017;SDS011;3037;51.068;13.780;2023-03-01T05:20:55;39.37;;;22.30;;
6017;SDS011;3037;51.068;13.780;2023-03-01T05:23:26;41.43;;;22.10;;
6017;SDS011;3037;51.068;13.780;2023-03-01T05:25:51;36.80;;;20.40;;
6017;SDS011;3037;51.068;13.780;2023-03-01T05:28:17;37.30;;;22.90;;
6017;SDS011;3037;51.068;13.780;2023-03-01T05:30:44;35.70;;;21.40;;
6017;SDS011;3037;51.068;13.780;2023-03-01T05:33:11;32.90;;;20.37;;
6017;SDS011;3037;51.068;13.780;2023-03-01T05:35:40;35.30;;;20.60;;
6017;SDS011;3037;51.068;13.780;2023-03-01T05:38:07;41.70;;;20.70;;
6017;SDS011;3037;51.068;13.780;2023-03-01T05:40:33;36.27;;;20.83;;
6017;SDS011;3037;51.068;13.780;2023-03-01T05:42:59;37.70;;;20.47;;
6017;SDS011;3037;51.068;13.780;2023-03-01T05:45:25;37.13;;;21.10;;
6017;SDS011;3037;51.068;13.780;2023-03-01T05:47:52;41.73;;;22.07;;
6017;SDS011;3037;51.068;13.780;2023-03-01T05:50:20;41.67;;;21.37;;
6017;SDS011;3037;51.068;13.780;2023-03-01T05:52:52;36.80;;;21.47;;
6017;SDS011;3037;51.068;13.780;2023-03-01T05:55:22;39.30;;;20.63;;
6017;SDS011;3037;51.068;13.780;2023-03-01T05:57:48;33.80;;;20.83;;
6017;SDS011;3037;51.068;13.780;2023-03-01T06:00:15;38.20;;;21.90;;
6017;SDS011;3037;51.068;13.780;2023-03-01T06:02:42;43.57;;;20.90;;
6017;SDS011;3037;51.068;13.780;2023-03-01T06:05:09;40.90;;;22.60;;
6017;SDS011;3037;51.068;13.780;2023-03-01T06:07:35;42.53;;;21.63;;
6017;SDS011;3037;51.068;13.780;2023-03-01T06:10:02;38.20;;;21.80;;
6017;SDS011;3037;51.068;13.780;2023-03-01T06:12:32;39.47;;;21.27;;
6017;SDS011;3037;51.068;13.780;2023-03-01T06:14:59;41.53;;;21.03;;
6017;SDS011;3037;51.068;13.780;2023-03-01T06:17:25;48.63;;;23.33;;
6017;SDS011;3037;51.068;13.780;2023-03-01T06:19:54;42.90;;;21.17;;
6017;SDS011;3037;51.068;13.780;2023-03-01T06:22:19;33.57;;;19.77;;
6017;SDS011;3037;51.068;13.780;2023-03-01T06:24:45;44.97;;;21.70;;
6017;SDS011;3037;51.068;13.780;2023-03-01T06:27:10;40.27;;;20.93;;
6017;SDS011;3037;51.068;13.780;2023-03-01T06:29:36;40.83;;;20.77;;
6017;SDS011;3037;51.068;13.780;2023-03-01T06:32:02;38.53;;;21.17;;
6017;SDS011;3037;51.068;13.780;2023-03-01T06:34:28;35.40;;;20.50;;
6017;SDS011;3037;51.068;13.780;2023-03-01T06:36:54;39.20;;;20.60;;
6017;SDS011;3037;51.068;13.780;2023-03-01T06:39:19;34.53;;;20.33;;
6017;SDS011;3037;51.068;13.780;2023-03-01T06:41:45;38.43;;;21.03;;
6017;SDS011;3037;51.068;13.780;2023-03-01T06:44:10;36.37;;;22.10;;
6017;SDS011;3037;51.068;13.780;2023-03-01T06:46:35;30.83;;;19.90;;
6017;SDS011;3037;51.068;13.780;2023-03-01T06:49:01;34.10;;;21.63;;
6017;SDS011;3037;51.068;13.780;2023-03-01T06:51:29;35.93;;;20.90;;
6017;SDS011;3037;51.068;13.780;2023-03-01T06:53:55;38.87;;;18.53;;
6017;SDS011;3037;51.068;13.780;2023-03-01T06:56:20;44.63;;;22.13;;
6017;SDS011;3037;51.068;13.780;2023-03-01T06:58:46;40.40;;;21.33;;
6017;SDS011;3037;51.068;13.780;2023-03-01T07:01:11;35.60;;;21.17;;
6017;SDS011;3037;51.068;13.780;2023-03-01T07:03:37;36.47;;;20.10;;
6017;SDS011;3037;51.068;13.780;2023-03-01T07:06:02;39.27;;;20.73;;
6017;SDS011;3037;51.068;13.780;2023-03-01T07:08:28;37.00;;;22.10;;
6017;SDS011;3037;51.068;13.780;2023-03-01T07:10:59;35.50;;;20.87;;
6017;SDS011;3037;51.068;13.780;2023-03-01T07:13:27;32.17;;;19.50;;
6017;SDS011;3037;51.068;13.780;2023-03-01T07:15:52;33.67;;;18.80;;
6017;SDS011;3037;51.068;13.780;2023-03-01T07:18:18;31.60;;;17.77;;
6017;SDS011;3037;51.068;13.780;2023-03-01T07:20:43;28.00;;;17.57;;
6017;SDS011;3037;51.068;13.780;2023-03-01T07:23:09;40.73;;;18.73;;
6017;SDS011;3037;51.068;13.780;2023-03-01T07:25:34;28.33;;;17.73;;
6017;SDS011;3037;51.068;13.780;2023-03-01T07:28:00;25.97;;;15.70;;
6017;SDS011;3037;51.068;13.780;2023-03-01T07:30:26;38.50;;;16.20;;
6017;SDS011;3037;51.068;13.780;2023-03-01T07:32:53;30.37;;;17.17;;
6017;SDS011;3037;51.068;13.780;2023-03-01T07:35:19;29.13;;;16.20;;
6017;SDS011;3037;51.068;13.780;2023-03-01T07:37:45;26.93;;;16.37;;
6017;SDS011;3037;51.068;13.780;2023-03-01T07:40:10;30.20;;;16.03;;
6017;SDS011;3037;51.068;13.780;2023-03-01T07:42:36;22.87;;;16.60;;
6017;SDS011;3037;51.068;13.780;2023-03-01T07:45:02;21.33;;;15.37;;
6017;SDS011;3037;51.068;13.780;2023-03-01T07:47:28;33.60;;;16.03;;
6017;SDS011;3037;51.068;13.780;2023-03-01T07:49:54;23.27;;;15.43;;
6017;SDS011;3037;51.068;13.780;2023-03-01T07:52:19;21.67;;;16.27;;
6017;SDS011;3037;51.068;13.780;2023-03-01T07:54:45;22.37;;;15.97;;
6017;SDS011;3037;51.068;13.780;2023-03-01T07:57:10;23.03;;;14.90;;
6017;SDS011;3037;51.068;13.780;2023-03-01T07:59:36;28.30;;;17.10;;
6017;SDS011;3037;51.068;13.780;2023-03-01T08:02:01;24.93;;;16.30;;
6017;SDS011;3037;51.068;13.780;2023-03-01T08:04:27;25.50;;;16.93;;
6017;SDS011;3037;51.068;13.780;2023-03-01T08:06:53;25.60;;;16.47;;
6017;SDS011;3037;51.068;13.780;2023-03-01T08:09:20;22.87;;;15.47;;
6017;SDS011;3037;51.068;13.780;2023-03-01T08:11:45;21.50;;;15.23;;
6017;SDS011;3037;51.068;13.780;2023-03-01T08:14:11;22.43;;;15.73;;
6017;SDS011;3037;51.068;13.780;2023-03-01T08:16:36;22.80;;;16.27;;
6017;SDS011;3037;51.068;13.780;2023-03-01T08:19:05;22.00;;;16.17;;
6017;SDS011;3037;51.068;13.780;2023-03-01T08:21:32;24.00;;;16.80;;
6017;SDS011;3037;51.068;13.780;2023-03-01T08:23:59;25.03;;;17.07;;
6017;SDS011;3037;51.068;13.780;2023-03-01T08:26:26;27.23;;;17.37;;
6017;SDS011;3037;51.068;13.780;2023-03-01T08:28:51;23.23;;;17.67;;
6017;SDS011;3037;51.068;13.780;2023-03-01T08:31:18;40.50;;;16.30;;
6017;SDS011;3037;51.068;13.780;2023-03-01T08:33:49;25.60;;;15.30;;
6017;SDS011;3037;51.068;13.780;2023-03-01T08:36:20;24.60;;;15.57;;
6017;SDS011;3037;51.068;13.780;2023-03-01T08:38:50;26.47;;;16.50;;
6017;SDS011;3037;51.068;13.780;2023-03-01T08:41:16;30.37;;;17.83;;
6017;SDS011;3037;51.068;13.780;2023-03-01T08:43:42;24.73;;;16.80;;
6017;SDS011;3037;51.068;13.780;2023-03-01T08:46:08;24.50;;;17.73;;
6017;SDS011;3037;51.068;13.780;2023-03-01T08:48:34;26.63;;;16.20;;
6017;SDS011;3037;51.068;13.780;2023-03-01T08:51:07;25.67;;;17.17;;
6017;SDS011;3037;51.068;13.780;2023-03-01T08:53:37;23.20;;;16.50;;
6017;SDS011;3037;51.068;13.780;2023-03-01T08:56:03;29.80;;;18.90;;
6017;SDS011;3037;51.068;13.780;2023-03-01T08:58:29;27.53;;;16.90;;
6017;SDS011;3037;51.068;13.780;2023-03-01T09:00:55;22.40;;;15.53;;
6017;SDS011;3037;51.068;13.780;2023-03-01T09:03:21;28.10;;;17.43;;
6017;SDS011;3037;51.068;13.780;2023-03-01T09:05:47;30.97;;;17.70;;
6017;SDS011;3037;51.068;13.780;2023-03-01T09:08:15;25.00;;;16.43;;
6017;SDS011;3037;51.068;13.780;2023-03-01T09:10:41;23.90;;;17.07;;
6017;SDS011;3037;51.068;13.780;2023-03-01T09:13:06;25.67;;;17.57;;
6017;SDS011;3037;51.068;13.780;2023-03-01T09:15:32;31.63;;;17.63;;
6017;SDS011;3037;51.068;13.780;2023-03-01T09:17:58;23.57;;;16.93;;
6017;SDS011;3037;51.068;13.780;2023-03-01T09:20:24;33.87;;;18.60;;
6017;SDS011;3037;51.068;13.780;2023-03-01T09:22:49;29.27;;;19.13;;
6017;SDS011;3037;51.068;13.780;2023-03-01T09:25:15;26.77;;;17.60;;
6017;SDS011;3037;51.068;13.780;2023-03-01T09:27:40;34.57;;;17.70;;
6017;SDS011;3037;51.068;13.780;2023-03-01T09:30:07;27.40;;;18.07;;
6017;SDS011;3037;51.068;13.780;2023-03-01T09:32:33;26.17;;;17.70;;
6017;SDS011;3037;51.068;13.780;2023-03-01T09:34:58;24.37;;;17.90;;
6017;SDS011;3037;51.068;13.780;2023-03-01T09:37:33;30.47;;;17.50;;
6017;SDS011;3037;51.068;13.780;2023-03-01T09:40:00;38.67;;;19.23;;
6017;SDS011;3037;51.068;13.780;2023-03-01T09:42:25;35.93;;;19.20;;
6017;SDS011;3037;51.068;13.780;2023-03-01T09:45:06;25.80;;;18.03;;
6017;SDS011;3037;51.068;13.780;2023-03-01T09:47:40;28.23;;;19.30;;
6017;SDS011;3037;51.068;13.780;2023-03-01T09:55:20;27.40;;;17.30;;
6017;SDS011;3037;51.068;13.780;2023-03-01T10:01:02;31.30;;;18.40;;
6017;SDS011;3037;51.068;13.780;2023-03-01T10:03:40;32.93;;;19.40;;
6017;SDS011;3037;51.068;13.780;2023-03-01T10:06:21;30.50;;;19.03;;
6017;SDS011;3037;51.068;13.780;2023-03-01T10:08:53;33.53;;;18.90;;
6017;SDS011;3037;51.068;13.780;2023-03-01T10:11:27;34.00;;;19.10;;
6017;SDS011;3037;51.068;13.780;2023-03-01T10:16:26;28.73;;;18.20;;
6017;SDS011;3037;51.068;13.780;2023-03-01T10:19:02;27.77;;;18.33;;
6017;SDS011;3037;51.068;13.780;2023-03-01T10:21:30;28.60;;;17.80;;
6017;SDS011;3037;51.068;13.780;2023-03-01T10:24:01;38.87;;;20.33;;
6017;SDS011;3037;51.068;13.780;2023-03-01T10:29:10;28.00;;;18.10;;
6017;SDS011;3037;51.068;13.780;2023-03-01T10:31:41;24.27;;;17.47;;
6017;SDS011;3037;51.068;13.780;2023-03-01T10:34:12;29.17;;;17.67;;
6017;SDS011;3037;51.068;13.780;2023-03-01T10:36:40;33.43;;;16.50;;
6017;SDS011;3037;51.068;13.780;2023-03-01T10:39:12;31.33;;;17.50;;
6017;SDS011;3037;51.068;13.780;2023-03-01T10:41:48;25.10;;;17.87;;
6017;SDS011;3037;51.068;13.780;2023-03-01T10:47:21;23.80;;;14.73;;
6017;SDS011;3037;51.068;13.780;2023-03-01T10:52:34;22.50;;;15.63;;
6017;SDS011;3037;51.068;13.780;2023-03-01T10:55:19;22.00;;;16.20;;
6017;SDS011;3037;51.068;13.780;2023-03-01T10:58:11;19.70;;;14.67;;
6017;SDS011;3037;51.068;13.780;2023-03-01T11:00:46;20.77;;;13.97;;
6017;SDS011;3037;51.068;13.780;2023-03-01T11:03:17;23.13;;;15.47;;
6017;SDS011;3037;51.068;13.780;2023-03-01T11:05:55;19.80;;;14.30;;
6017;SDS011;3037;51.068;13.780;2023-03-01T11:08:29;25.00;;;14.70;;
6017;SDS011;3037;51.068;13.780;2023-03-01T11:13:34;18.87;;;13.83;;
6017;SDS011;3037;51.068;13.780;2023-03-01T11:16:05;22.33;;;13.57;;
6017;SDS011;3037;51.068;13.780;2023-03-01T11:18:34;24.20;;;14.27;;
6017;SDS011;3037;51.068;13.780;2023-03-01T11:21:00;20.07;;;14.37;;
6017;SDS011;3037;51.068;13.780;2023-03-01T11:23:30;27.10;;;15.50;;
6017;SDS011;3037;51.068;13.780;2023-03-01T11:26:01;28.43;;;13.20;;
6017;SDS011;3037;51.068;13.780;2023-03-01T11:28:32;15.43;;;12.90;;
6017;SDS011;3037;51.068;13.780;2023-03-01T11:36:03;25.93;;;13.40;;
6017;SDS011;3037;51.068;13.780;2023-03-01T11:38:54;18.73;;;11.90;;
6017;SDS011;3037;51.068;13.780;2023-03-01T11:41:25;17.90;;;12.70;;
6017;SDS011;3037;51.068;13.780;2023-03-01T11:44:07;18.10;;;12.73;;
6017;SDS011;3037;51.068;13.780;2023-03-01T11:54:32;13.90;;;11.03;;
6017;SDS011;3037;51.068;13.780;2023-03-01T11:57:14;18.60;;;11.43;;
6017;SDS011;3037;51.068;13.780;2023-03-01T11:59:59;19.03;;;12.37;;
6017;SDS011;3037;51.068;13.780;2023-03-01T12:08:08;17.17;;;12.50;;
6017;SDS011;3037;51.068;13.780;2023-03-01T12:11:02;18.70;;;12.20;;
6017;SDS011;3037;51.068;13.780;2023-03-01T12:13:46;19.53;;;12.90;;
6017;SDS011;3037;51.068;13.780;2023-03-01T12:16:23;18.67;;;13.70;;
6017;SDS011;3037;51.068;13.780;2023-03-01T12:18:59;23.60;;;14.00;;
6017;SDS011;3037;51.068;13.780;2023-03-01T12:26:56;27.23;;;15.63;;
6017;SDS011;3037;51.068;13.780;2023-03-01T12:29:36;27.07;;;16.97;;
6017;SDS011;3037;51.068;13.780;2023-03-01T12:32:25;28.80;;;16.10;;
6017;SDS011;3037;51.068;13.780;2023-03-01T12:35:06;26.63;;;16.13;;
6017;SDS011;3037;51.068;13.780;2023-03-01T12:37:56;30.20;;;17.27;;
6017;SDS011;3037;51.068;13.780;2023-03-01T12:40:28;23.40;;;15.77;;
6017;SDS011;3037;51.068;13.780;2023-03-01T12:43:38;26.37;;;15.30;;
6017;SDS011;3037;51.068;13.780;2023-03-01T12:49:19;26.77;;;16.10;;
6017;SDS011;3037;51.068;13.780;2023-03-01T12:51:56;26.20;;;17.50;;
6017;SDS011;3037;51.068;13.780;2023-03-01T12:54:27;31.80;;;16.67;;
6017;SDS011;3037;51.068;13.780;2023-03-01T12:56:55;23.30;;;15.40;;
6017;SDS011;3037;51.068;13.780;2023-03-01T13:01:59;27.27;;;15.03;;
6017;SDS011;3037;51.068;13.780;2023-03-01T13:13:08;29.30;;;18.13;;
6017;SDS011;3037;51.068;13.780;2023-03-01T13:15:38;29.53;;;15.30;;
6017;SDS011;3037;51.068;13.780;2023-03-01T13:18:26;22.77;;;16.20;;
6017;SDS011;3037;51.068;13.780;2023-03-01T13:20:56;24.53;;;15.27;;
6017;SDS011;3037;51.068;13.780;2023-03-01T13:23:27;25.33;;;15.20;;
6017;SDS011;3037;51.068;13.780;2023-03-01T13:28:40;22.20;;;14.30;;
6017;SDS011;3037;51.068;13.780;2023-03-01T13:31:10;21.00;;;14.30;;
6017;SDS011;3037;51.068;13.780;2023-03-01T13:33:48;21.47;;;14.10;;
6017;SDS011;3037;51.068;13.780;2023-03-01T13:49:35;23.80;;;16.63;;
6017;SDS011;3037;51.068;13.780;2023-03-01T13:52:13;29.43;;;16.27;;
6017;SDS011;3037;51.068;13.780;2023-03-01T13:54:57;24.60;;;15.60;;
6017;SDS011;3037;51.068;13.780;2023-03-01T13:57:25;22.33;;;15.13;;
6017;SDS011;3037;51.068;13.780;2023-03-01T13:59:55;22.80;;;15.80;;
6017;SDS011;3037;51.068;13.780;2023-03-01T14:02:20;26.30;;;17.07;;
6017;SDS011;3037;51.068;13.780;2023-03-01T14:04:55;22.17;;;15.00;;
6017;SDS011;3037;51.068;13.780;2023-03-01T14:07:22;23.93;;;16.87;;
6017;SDS011;3037;51.068;13.780;2023-03-01T14:09:55;24.27;;;14.80;;
6017;SDS011;3037;51.068;13.780;2023-03-01T14:12:41;24.60;;;15.80;;
6017;SDS011;3037;51.068;13.780;2023-03-01T14:15:22;26.87;;;14.83;;
6017;SDS011;3037;51.068;13.780;2023-03-01T14:18:20;21.90;;;13.83;;
6017;SDS011;3037;51.068;13.780;2023-03-01T14:20:56;23.50;;;16.63;;
6017;SDS011;3037;51.068;13.780;2023-03-01T14:23:23;24.80;;;16.40;;
6017;SDS011;3037;51.068;13.780;2023-03-01T14:25:49;26.80;;;17.63;;
6017;SDS011;3037;51.068;13.780;2023-03-01T14:28:19;34.30;;;17.97;;
6017;SDS011;3037;51.068;13.780;2023-03-01T14:30:51;31.63;;;17.40;;
6017;SDS011;3037;51.068;13.780;2023-03-01T14:33:22;22.73;;;14.63;;
6017;SDS011;3037;51.068;13.780;2023-03-01T14:35:52;32.17;;;16.57;;
6017;SDS011;3037;51.068;13.780;2023-03-01T14:38:20;32.30;;;16.27;;
6017;SDS011;3037;51.068;13.780;2023-03-01T14:40:48;32.27;;;16.80;;
6017;SDS011;3037;51.068;13.780;2023-03-01T14:43:18;29.37;;;17.83;;
6017;SDS011;3037;51.068;13.780;2023-03-01T14:45:48;24.60;;;15.23;;
6017;SDS011;3037;51.068;13.780;2023-03-01T14:48:15;21.20;;;14.80;;
6017;SDS011;3037;51.068;13.780;2023-03-01T14:50:41;28.10;;;15.70;;
6017;SDS011;3037;51.068;13.780;2023-03-01T14:53:15;29.30;;;15.70;;
6017;SDS011;3037;51.068;13.780;2023-03-01T14:55:44;22.07;;;15.23;;
6017;SDS011;3037;51.068;13.780;2023-03-01T14:58:13;20.10;;;14.00;;
6017;SDS011;3037;51.068;13.780;2023-03-01T15:00:44;26.30;;;16.53;;
6017;SDS011;3037;51.068;13.780;2023-03-01T15:03:15;26.37;;;15.90;;
6017;SDS011;3037;51.068;13.780;2023-03-01T15:05:48;31.40;;;14.60;;
6017;SDS011;3037;51.068;13.780;2023-03-01T15:08:16;26.20;;;15.47;;
6017;SDS011;3037;51.068;13.780;2023-03-01T15:13:30;22.87;;;14.57;;
6017;SDS011;3037;51.068;13.780;2023-03-01T15:16:04;20.63;;;13.90;;
6017;SDS011;3037;51.068;13.780;2023-03-01T15:18:32;20.20;;;13.17;;
6017;SDS011;3037;51.068;13.780;2023-03-01T15:21:06;22.40;;;15.00;;
6017;SDS011;3037;51.068;13.780;2023-03-01T15:23:34;24.17;;;15.07;;
6017;SDS011;3037;51.068;13.780;2023-03-01T15:26:03;19.70;;;13.60;;
6017;SDS011;3037;51.068;13.780;2023-03-01T15:30:57;25.43;;;14.87;;
6017;SDS011;3037;51.068;13.780;2023-03-01T15:33:41;24.77;;;13.13;;
6017;SDS011;3037;51.068;13.780;2023-03-01T15:36:31;23.57;;;15.77;;
6017;SDS011;3037;51.068;13.780;2023-03-01T15:39:05;24.50;;;13.67;;
6017;SDS011;3037;51.068;13.780;2023-03-01T15:41:51;20.53;;;14.17;;
6017;SDS011;3037;51.068;13.780;2023-03-01T15:44:18;22.57;;;14.40;;
6017;SDS011;3037;51.068;13.780;2023-03-01T15:46:51;20.90;;;12.50;;
6017;SDS011;3037;51.068;13.780;2023-03-01T15:49:27;26.00;;;13.93;;
6017;SDS011;3037;51.068;13.780;2023-03-01T15:52:01;20.67;;;12.57;;
6017;SDS011;3037;51.068;13.780;2023-03-01T15:54:28;21.50;;;13.87;;
6017;SDS011;3037;51.068;13.780;2023-03-01T15:56:54;23.67;;;14.67;;
6017;SDS011;3037;51.068;13.780;2023-03-01T15:59:20;19.83;;;12.00;;
6017;SDS011;3037;51.068;13.780;2023-03-01T16:01:47;17.77;;;12.40;;
6017;SDS011;3037;51.068;13.780;2023-03-01T16:04:13;22.50;;;13.27;;
6017;SDS011;3037;51.068;13.780;2023-03-01T16:06:51;24.20;;;13.20;;
6017;SDS011;3037;51.068;13.780;2023-03-01T16:09:21;22.60;;;12.53;;
6017;SDS011;3037;51.068;13.780;2023-03-01T16:11:48;18.03;;;12.20;;
6017;SDS011;3037;51.068;13.780;2023-03-01T16:14:14;18.80;;;11.83;;
6017;SDS011;3037;51.068;13.780;2023-03-01T16:16:39;17.37;;;12.13;;